Time;durP1;ratioP1;P1;durP2;ratioP2;P2;SDS_P1;SDS_P2;PMS_P1;PMS_P2;Temp;Humidity;BMP_temperature;BMP_pressure;BME280_temperature;BME280_humidity;BME280_pressure;Samples;Min_cycle;Max_cycle;Signal;HPM_P1;HPM_P2
2021/03/08 00:00:15;;;;;;;39.20;21.37;;;3.00;99.90;;;-143.32;91.13;54301.31;6186418;23;20405;-87
2021/03/08 00:02:44;;;;;;;37.30;19.30;;;3.00;99.90;;;-143.32;90.91;54281.13;6186301;23;20405;-88
2021/03/08 00:05:12;;;;;;;36.47;21.03;;;3.10;99.90;;;-143.32;91.30;54301.31;6186603;23;20437;-88
2021/03/08 00:07:38;;;;;;;39.40;20.90;;;3.10;99.90;;;-143.32;91.08;54319.50;6186032;23;20414;-89
2021/03/08 00:10:06;;;;;;;37.20;20.10;;;3.20;99.90;;;-143.32;91.00;54303.34;6186402;23;20420;-89
2021/03/08 00:12:34;;;;;;;43.37;20.87;;;3.00;99.90;;;-143.32;90.91;54295.25;6186793;23;20793;-88
2021/03/08 00:15:01;;;;;;;38.13;20.97;;;3.00;99.90;;;-143.32;91.52;54299.28;6186334;23;20414;-88
2021/03/08 00:17:27;;;;;;;33.63;20.70;;;3.00;99.90;;;-143.32;91.84;54297.28;6185812;23;20414;-89
2021/03/08 00:19:55;;;;;;;39.53;21.57;;;3.00;99.90;;;-143.32;91.43;54297.28;6187057;23;20702;-88
2021/03/08 00:22:22;;;;;;;39.73;21.77;;;3.00;99.90;;;-143.32;91.56;54297.28;6185837;23;20409;-91
2021/03/08 00:24:48;;;;;;;38.57;20.27;;;3.10;99.90;;;-143.32;91.51;54289.19;6186002;23;20413;-90
2021/03/08 00:27:15;;;;;;;41.70;21.83;;;3.10;99.90;;;-143.32;91.84;54297.28;6186308;23;20394;-88
2021/03/08 00:29:42;;;;;;;37.93;20.57;;;3.00;99.90;;;-143.32;91.48;54252.81;6187230;23;20775;-88
2021/03/08 00:32:09;;;;;;;34.60;20.20;;;3.20;99.90;;;-143.32;91.64;54309.41;6185859;23;20460;-90
2021/03/08 00:34:39;;;;;;;43.60;21.70;;;3.10;99.90;;;-143.32;91.47;54289.19;6185924;23;20397;-88
2021/03/08 00:37:07;;;;;;;39.30;21.87;;;3.10;99.90;;;-143.32;91.38;54297.28;6186516;23;20422;-87
2021/03/08 00:39:33;;;;;;;41.40;22.53;;;3.00;99.90;;;-143.32;91.93;54301.31;6186933;23;20410;-88
2021/03/08 00:42:00;;;;;;;40.03;21.57;;;3.00;99.90;;;-143.32;92.28;54275.06;6186316;23;20437;-89
2021/03/08 00:44:27;;;;;;;40.40;23.13;;;3.00;99.90;;;-143.32;92.34;54238.69;6186206;23;20736;-90
2021/03/08 00:46:54;;;;;;;42.93;22.63;;;3.00;99.90;;;-143.32;92.73;54285.16;6186202;23;20497;-89
2021/03/08 00:49:21;;;;;;;44.37;24.27;;;3.00;99.90;;;-143.32;93.00;54295.25;6186600;23;20394;-88
2021/03/08 00:51:47;;;;;;;47.33;24.33;;;2.90;99.90;;;-143.32;92.73;54291.22;6185783;23;20390;-88
2021/03/08 00:54:15;;;;;;;46.37;22.53;;;3.00;99.90;;;-143.32;92.68;54273.03;6185871;23;20441;-88
2021/03/08 00:56:42;;;;;;;42.00;23.90;;;3.00;99.90;;;-143.32;92.52;54289.19;6185790;23;20413;-89
2021/03/08 00:59:09;;;;;;;46.13;24.53;;;3.00;99.90;;;-143.32;92.63;54256.88;6185857;23;20401;-89
2021/03/08 01:01:36;;;;;;;47.37;24.73;;;3.00;99.90;;;-143.32;92.92;54279.09;6185988;23;20413;-88
2021/03/08 01:04:03;;;;;;;42.37;24.73;;;3.00;99.90;;;-143.32;93.20;54277.06;6185787;23;20444;-86
2021/03/08 01:06:29;;;;;;;44.10;23.97;;;2.90;99.90;;;-143.32;93.00;54266.97;6185629;23;20414;-88
2021/03/08 01:08:56;;;;;;;42.03;24.10;;;3.00;99.90;;;-143.32;93.34;54273.03;6185659;23;20456;-87
2021/03/08 01:11:24;;;;;;;52.20;26.27;;;3.00;99.90;;;-143.32;93.44;54275.06;6185786;23;20410;-87
2021/03/08 01:13:51;;;;;;;42.90;24.27;;;2.90;99.90;;;-143.32;93.80;54256.88;6185640;23;20453;-88
2021/03/08 01:16:17;;;;;;;44.03;24.10;;;2.90;99.90;;;-143.32;93.46;54285.16;6187284;23;20413;-90
2021/03/08 01:18:44;;;;;;;51.80;25.27;;;2.90;99.90;;;-143.32;93.95;54291.22;6187600;23;20418;-89
2021/03/08 01:21:11;;;;;;;50.27;24.77;;;2.90;99.90;;;-143.32;94.17;54293.22;6187578;23;20413;-88
2021/03/08 01:23:37;;;;;;;50.40;24.70;;;2.90;99.90;;;-143.32;93.79;54289.19;6188711;23;20659;-88
2021/03/08 01:26:04;;;;;;;49.93;24.07;;;3.10;99.90;;;-143.32;94.34;54250.81;6187916;23;20406;-89
2021/03/08 01:28:32;;;;;;;46.50;25.13;;;2.90;99.90;;;-143.32;94.08;54279.09;6187528;23;20409;-88
2021/03/08 01:30:58;;;;;;;44.20;25.30;;;2.90;99.90;;;-143.32;93.93;54242.72;6187926;23;20398;-90
2021/03/08 01:33:25;;;;;;;44.43;25.10;;;2.90;99.90;;;-143.32;93.90;54256.88;6187766;23;20445;-90
2021/03/08 01:35:52;;;;;;;42.47;24.03;;;3.00;99.90;;;-143.32;93.85;54256.88;6187428;23;20461;-88
2021/03/08 01:38:19;;;;;;;46.97;24.73;;;2.90;99.90;;;-143.32;93.71;54275.06;6187491;23;20425;-89
2021/03/08 01:40:45;;;;;;;50.20;25.13;;;2.80;99.90;;;-143.32;93.74;54269.00;6187362;23;20457;-91
2021/03/08 01:43:12;;;;;;;47.27;25.30;;;3.00;99.90;;;-143.32;93.72;54277.06;6187802;23;20402;-90
2021/03/08 01:45:41;;;;;;;43.63;23.63;;;2.80;99.90;;;-143.32;93.67;54266.97;6188364;23;20876;-89
2021/03/08 01:48:08;;;;;;;44.27;24.27;;;2.90;99.90;;;-143.32;94.16;54240.72;6187806;23;20413;-90
2021/03/08 01:50:38;;;;;;;50.13;26.40;;;2.90;99.90;;;-143.32;94.00;54256.88;6187751;23;20425;-89
2021/03/08 01:53:06;;;;;;;50.57;25.00;;;3.00;99.90;;;-143.32;94.19;54232.63;6187648;23;20453;-89
2021/03/08 01:55:34;;;;;;;49.93;27.07;;;2.90;99.90;;;-143.32;93.93;54279.09;6188362;23;20413;-88
2021/03/08 01:58:04;;;;;;;47.83;24.60;;;2.90;99.90;;;-143.32;93.86;54262.94;6187226;23;20908;-88
2021/03/08 02:00:32;;;;;;;46.47;25.00;;;3.00;99.90;;;-143.32;93.97;54260.91;6187706;23;20920;-91
2021/03/08 02:03:03;;;;;;;48.13;25.50;;;2.90;99.90;;;-143.32;94.54;54262.94;6187482;23;20453;-89
2021/03/08 02:05:32;;;;;;;45.47;24.80;;;2.90;99.90;;;-143.32;94.67;54240.72;6187276;23;20386;-88
2021/03/08 02:08:00;;;;;;;48.50;26.43;;;3.00;99.90;;;-143.32;94.56;54256.88;6187532;23;20831;-88
2021/03/08 02:10:30;;;;;;;54.17;27.07;;;3.00;99.90;;;-143.32;94.49;54275.06;6187495;23;20884;-90
2021/03/08 02:13:21;;;;;;;50.07;26.77;;;3.00;99.90;;;-143.32;94.91;54240.72;6187071;23;20445;-91
2021/03/08 02:15:56;;;;;;;47.00;25.67;;;2.90;99.90;;;-143.32;95.38;54250.81;6187506;23;20394;-89
2021/03/08 02:18:36;;;;;;;51.43;25.60;;;3.00;99.90;;;-143.32;95.19;54246.78;6187133;23;20896;-89
2021/03/08 02:21:28;;;;;;;48.03;26.07;;;2.90;99.90;;;-143.32;95.38;54258.88;6187659;23;20394;-89
2021/03/08 02:24:33;;;;;;;48.80;25.93;;;3.10;99.90;;;-143.32;95.65;54226.56;6187462;23;20413;-88
2021/03/08 02:27:03;;;;;;;58.67;28.27;;;3.00;99.90;;;-143.32;95.89;54240.72;6186900;23;20470;-87
2021/03/08 02:30:22;;;;;;;53.67;27.27;;;3.00;99.90;;;-143.32;96.33;54230.59;6186989;23;20916;-89
2021/03/08 02:32:51;;;;;;;50.60;26.57;;;2.80;99.90;;;-143.32;96.63;54220.50;6187280;23;20925;-88
2021/03/08 02:35:21;;;;;;;64.30;28.07;;;2.90;99.90;;;-143.32;96.84;54218.50;6188329;23;20746;-88
2021/03/08 02:37:52;;;;;;;50.37;26.37;;;2.80;99.90;;;-143.32;97.01;54236.66;6187347;23;20668;-89
2021/03/08 02:40:25;;;;;;;65.50;28.80;;;2.80;99.90;;;-143.32;97.14;54226.56;6187994;23;20397;-90
2021/03/08 02:42:56;;;;;;;47.40;26.17;;;2.80;99.90;;;-143.32;97.14;54256.88;6189193;23;20394;-90
2021/03/08 02:45:30;;;;;;;52.03;26.63;;;2.70;99.90;;;-143.32;97.30;54226.56;6188684;23;20394;-89
2021/03/08 02:48:01;;;;;;;49.37;26.50;;;2.70;99.90;;;-143.32;97.83;54238.69;6189604;23;20467;-87
2021/03/08 02:50:36;;;;;;;63.30;28.17;;;2.70;99.90;;;-143.32;97.67;54226.56;6188830;23;20382;-86
2021/03/08 02:53:09;;;;;;;52.60;25.97;;;2.70;99.90;;;-143.32;97.80;54234.66;6189548;23;20438;-87
2021/03/08 02:55:44;;;;;;;50.63;27.33;;;2.70;99.90;;;-143.32;97.77;54228.59;6189776;23;20410;-87
2021/03/08 02:58:17;;;;;;;57.60;26.80;;;2.60;99.90;;;-143.32;98.23;54206.38;6189078;23;20405;-87
2021/03/08 03:00:54;;;;;;;50.00;27.00;;;2.60;99.90;;;-143.32;98.21;54206.38;6188636;23;20379;-89
2021/03/08 03:03:25;;;;;;;58.37;29.10;;;2.60;99.90;;;-143.32;98.67;54234.66;6188352;23;20429;-88
2021/03/08 03:05:57;;;;;;;50.60;27.57;;;2.60;99.90;;;-143.32;98.70;54212.44;6188651;23;20913;-89
2021/03/08 03:08:29;;;;;;;60.87;28.17;;;2.70;99.90;;;-143.32;98.96;54216.47;6189125;23;20413;-88
2021/03/08 03:14:39;;;;;;;56.70;26.83;;;2.60;99.90;;;-143.32;98.89;54212.44;6188985;23;20457;-88
2021/03/08 03:17:44;;;;;;;50.10;26.70;;;2.70;99.90;;;-143.32;98.94;54224.53;6188783;23;20417;-88
2021/03/08 03:20:16;;;;;;;47.93;26.63;;;2.60;99.90;;;-143.32;99.29;54208.38;6189621;23;20425;-89
2021/03/08 03:22:49;;;;;;;52.77;27.30;;;2.60;99.90;;;-143.32;99.12;54218.50;6188989;23;20512;-89
2021/03/08 03:25:25;;;;;;;52.50;27.70;;;2.70;99.90;;;-143.32;99.04;54234.66;6188283;23;20465;-89
2021/03/08 03:27:55;;;;;;;61.47;27.40;;;2.60;99.90;;;-143.32;99.11;54234.66;6188853;23;20375;-89
2021/03/08 03:30:28;;;;;;;54.17;27.30;;;2.70;99.90;;;-143.32;99.20;54204.34;6189120;23;20912;-88
2021/03/08 03:32:57;;;;;;;59.80;28.47;;;2.60;99.90;;;-143.32;99.73;54214.44;6188648;23;20440;-88
2021/03/08 03:35:27;;;;;;;57.13;28.00;;;2.70;99.90;;;-143.32;99.72;54216.47;6189099;23;20413;-89
2021/03/08 03:37:57;;;;;;;50.20;26.73;;;2.60;99.90;;;-143.32;99.77;54210.41;6189134;23;20383;-88
2021/03/08 03:44:08;;;;;;;56.10;28.57;;;2.60;99.90;;;-143.32;99.87;54176.06;6188614;23;20449;-87
2021/03/08 03:46:42;;;;;;;54.83;28.40;;;2.60;99.90;;;-143.32;100.00;54200.31;6188940;23;20410;-90
2021/03/08 03:49:14;;;;;;;52.03;28.20;;;2.50;99.90;;;-143.32;100.00;54202.31;6189080;23;20417;-89
2021/03/08 03:51:47;;;;;;;61.90;29.03;;;2.50;99.90;;;-143.32;100.00;54165.97;6188214;23;20390;-88
2021/03/08 03:54:15;;;;;;;63.10;27.73;;;2.60;99.90;;;-143.32;100.00;54230.59;6188217;23;20434;-90
2021/03/08 03:57:06;;;;;;;57.57;29.23;;;2.60;99.90;;;-143.32;100.00;54204.34;6188186;23;20394;-89
2021/03/08 03:59:47;;;;;;;60.40;29.87;;;2.50;99.90;;;-143.32;100.00;54174.03;6189184;23;20401;-90
2021/03/08 04:02:58;;;;;;;49.83;26.13;;;2.50;99.90;;;-143.32;100.00;54196.25;6189179;23;20383;-89
2021/03/08 04:05:26;;;;;;;58.20;28.00;;;2.50;99.90;;;-143.32;100.00;54212.44;6187324;23;20834;-89
2021/03/08 04:07:55;;;;;;;57.97;29.17;;;2.50;99.90;;;-143.32;100.00;54210.41;6187690;23;20461;-89
2021/03/08 04:10:23;;;;;;;59.87;28.53;;;2.60;99.90;;;-143.32;100.00;54186.16;6188114;23;20561;-90
2021/03/08 04:13:00;;;;;;;58.63;28.50;;;2.60;99.90;;;-143.32;100.00;54218.50;6186551;23;20770;-89
2021/03/08 04:15:32;;;;;;;58.50;30.27;;;2.60;99.90;;;-143.32;100.00;54204.34;6187078;23;20396;-89
2021/03/08 04:18:01;;;;;;;58.20;29.57;;;2.60;99.90;;;-143.32;100.00;54159.91;6185989;23;20418;-89
2021/03/08 04:20:30;;;;;;;61.53;28.47;;;2.50;99.90;;;-143.32;100.00;54161.91;6186591;23;20405;-91
2021/03/08 04:23:02;;;;;;;60.73;28.97;;;2.60;99.90;;;-143.32;100.00;54151.81;6186394;23;20401;-89
2021/03/08 04:25:34;;;;;;;58.53;29.30;;;2.60;99.90;;;-143.32;100.00;54163.94;6187455;23;20421;-90
2021/03/08 04:28:02;;;;;;;52.13;26.90;;;2.60;99.90;;;-143.32;100.00;54143.75;6186412;23;20453;-90
2021/03/08 04:30:32;;;;;;;58.80;29.30;;;2.60;99.90;;;-143.32;100.00;54163.94;6186286;23;20760;-90
2021/03/08 04:33:00;;;;;;;57.27;28.53;;;2.60;99.90;;;-143.32;100.00;54180.09;6187425;23;20445;-91
2021/03/08 04:35:30;;;;;;;58.70;29.77;;;2.60;99.90;;;-143.32;100.00;54170.00;6185922;23;20409;-89
2021/03/08 04:37:59;;;;;;;58.23;29.50;;;2.70;99.90;;;-143.32;100.00;54174.03;6186604;23;20398;-89
2021/03/08 04:40:26;;;;;;;58.20;28.63;;;2.70;99.90;;;-143.32;100.00;54153.84;6185968;23;20452;-91
2021/03/08 04:42:54;;;;;;;67.63;30.07;;;2.70;99.90;;;-143.32;100.00;54165.97;6186014;23;20402;-90
2021/03/08 04:45:22;;;;;;;62.43;30.67;;;2.80;99.90;;;-143.32;100.00;54167.97;6186120;23;20747;-91
2021/03/08 04:47:51;;;;;;;57.10;29.17;;;2.60;99.90;;;-143.32;100.00;54117.47;6186435;23;20410;-91
2021/03/08 04:50:18;;;;;;;61.87;29.73;;;2.70;99.90;;;-143.32;100.00;54188.19;6187607;23;20390;-90
2021/03/08 04:52:49;;;;;;;63.83;31.60;;;2.70;99.90;;;-143.32;100.00;54161.91;6188417;23;20940;-88
2021/03/08 04:55:17;;;;;;;71.00;30.80;;;2.80;99.90;;;-143.32;100.00;54149.78;6188204;23;20924;-87
2021/03/08 04:57:44;;;;;;;51.97;26.90;;;2.80;99.90;;;-143.32;100.00;54147.78;6188318;23;20417;-88
2021/03/08 05:00:14;;;;;;;65.60;31.03;;;2.80;99.90;;;-143.32;100.00;54145.75;6187952;23;20394;-89
2021/03/08 05:02:43;;;;;;;61.10;29.37;;;2.80;99.90;;;-143.32;100.00;54113.44;6188085;23;20401;-89
2021/03/08 05:05:12;;;;;;;60.63;29.30;;;2.80;99.90;;;-143.32;100.00;54139.69;6188358;23;20422;-89
2021/03/08 05:07:41;;;;;;;58.57;30.93;;;2.90;99.90;;;-143.32;100.00;54133.63;6187790;23;20390;-90
2021/03/08 05:10:16;;;;;;;64.63;31.50;;;2.80;99.90;;;-143.32;100.00;54125.56;6187805;23;20402;-90
2021/03/08 05:12:43;;;;;;;67.90;30.87;;;2.90;99.90;;;-143.32;100.00;54113.44;6188374;23;20491;-87
2021/03/08 05:15:13;;;;;;;66.50;31.30;;;2.80;99.90;;;-143.32;100.00;54127.56;6188848;23;20402;-89
2021/03/08 05:17:45;;;;;;;65.00;33.37;;;2.80;99.90;;;-143.32;100.00;54095.25;6189246;23;20897;-88
2021/03/08 05:20:15;;;;;;;63.83;30.70;;;2.80;99.90;;;-143.32;100.00;54085.16;6188628;23;20413;-88
2021/03/08 05:23:21;;;;;;;64.47;32.77;;;2.80;99.90;;;-143.32;100.00;54113.44;6191110;23;20386;-90
2021/03/08 05:25:49;;;;;;;63.43;32.70;;;2.90;99.90;;;-143.32;100.00;54131.63;6190980;23;20393;-90
2021/03/08 05:31:59;;;;;;;71.53;30.47;;;2.90;99.90;;;-143.32;100.00;54119.50;6187941;23;20424;-91
2021/03/08 05:34:26;;;;;;;72.80;32.27;;;2.90;99.90;;;-143.32;100.00;54089.19;6187414;23;20442;-91
2021/03/08 05:36:53;;;;;;;62.60;32.17;;;2.90;99.90;;;-143.32;100.00;54109.41;6187766;23;20421;-90
2021/03/08 05:39:22;;;;;;;62.13;31.17;;;2.80;99.90;;;-143.32;100.00;54111.41;6187816;23;20406;-89
2021/03/08 05:41:59;;;;;;;72.30;32.93;;;2.80;99.90;;;-143.32;100.00;54105.34;6187405;23;20424;-89
2021/03/08 05:44:29;;;;;;;61.77;30.90;;;2.80;99.90;;;-143.32;100.00;54111.41;6188344;23;20721;-89
2021/03/08 05:47:46;;;;;;;69.73;33.17;;;2.80;99.90;;;-143.32;100.00;54095.25;6187466;23;20858;-90
2021/03/08 05:51:01;;;;;;;68.10;32.87;;;3.00;99.90;;;-143.32;100.00;54099.28;6158695;23;20409;-90
2021/03/08 05:54:08;;;;;;;81.27;33.03;;;2.80;99.90;;;-143.32;100.00;54075.06;6187355;23;20433;-90
2021/03/08 05:57:02;;;;;;;64.73;33.63;;;2.80;99.90;;;-143.32;100.00;54133.63;6187474;23;20382;-91
2021/03/08 05:59:43;;;;;;;76.93;35.97;;;2.70;99.90;;;-143.32;100.00;54048.78;6188244;23;20429;-90
2021/03/08 06:02:47;;;;;;;75.63;34.50;;;2.70;99.90;;;-143.32;100.00;54081.13;6187626;23;20386;-91
2021/03/08 06:06:19;;;;;;;73.53;33.93;;;2.60;99.90;;;-143.32;100.00;54030.63;6187344;23;20881;-90
2021/03/08 06:09:22;;;;;;;92.00;35.73;;;2.60;99.90;;;-143.32;100.00;54036.66;6187194;23;20403;-92
2021/03/08 06:12:08;;;;;;;75.20;36.73;;;2.60;99.90;;;-143.32;100.00;54008.38;6187137;23;20761;-90
2021/03/08 06:14:40;;;;;;;86.13;34.23;;;2.60;99.90;;;-143.32;100.00;54054.84;6187281;23;20405;-92
2021/03/08 06:17:17;;;;;;;75.10;36.93;;;2.60;99.90;;;-143.32;100.00;53988.19;6187065;23;20414;-92
2021/03/08 06:19:47;;;;;;;85.10;38.37;;;2.60;99.90;;;-143.32;100.00;53994.25;6187677;23;20460;-89
2021/03/08 06:22:22;;;;;;;87.53;38.30;;;2.70;99.90;;;-143.32;100.00;53994.25;6188111;23;20521;-92
2021/03/08 06:24:58;;;;;;;88.67;35.30;;;2.70;99.90;;;-143.32;100.00;54014.44;6187350;23;20528;-93
2021/03/08 06:27:34;;;;;;;79.00;37.27;;;2.70;99.90;;;-143.32;100.00;53986.16;6188469;23;20931;-92
2021/03/08 06:30:16;;;;;;;80.40;37.50;;;2.70;99.90;;;-143.32;100.00;53965.97;6189334;23;20461;-92
2021/03/08 06:32:48;;;;;;;78.03;36.27;;;2.60;99.90;;;-143.32;100.00;53988.19;6187841;23;20924;-93
2021/03/08 06:35:59;;;;;;;83.63;38.30;;;2.60;99.90;;;-143.32;100.00;53917.50;6188015;23;20404;-93
2021/03/08 06:38:43;;;;;;;90.67;38.20;;;2.40;99.90;;;-143.32;100.00;53869.00;6186987;23;20488;-92
2021/03/08 06:41:19;;;;;;;85.83;39.80;;;2.30;99.90;;;-143.32;100.00;53867.00;6188024;23;20457;-93
2021/03/08 06:44:05;;;;;;;97.40;41.63;;;2.20;99.90;;;-143.32;100.00;53770.03;6187363;23;20398;-92
2021/03/08 06:46:41;;;;;;;101.43;40.47;;;2.20;99.90;;;-143.32;100.00;53695.28;6188090;23;20410;-92
2021/03/08 06:52:50;;;;;;;104.87;43.40;;;2.20;99.90;;;-143.32;100.00;53671.06;6187235;23;20794;-93
2021/03/08 06:55:37;;;;;;;125.10;45.90;;;2.10;99.90;;;-143.32;100.00;53616.50;6187050;23;20889;-93
2021/03/08 07:02:06;;;;;;;122.03;44.80;;;2.10;99.90;;;-143.32;100.00;53559.97;6188115;23;20498;-93
2021/03/08 07:05:33;;;;;;;120.27;42.63;;;2.20;99.90;;;-143.32;100.00;53531.69;6200104;23;20409;-92
2021/03/08 07:11:24;;;;;;;137.97;47.97;;;2.10;99.90;;;-143.32;100.00;53505.44;6190698;23;20489;-91
2021/03/08 07:13:51;;;;;;;133.63;49.20;;;2.20;99.90;;;-143.32;100.00;53465.03;6186905;23;20472;-92
2021/03/08 07:16:24;;;;;;;142.20;47.90;;;2.20;99.90;;;-143.32;100.00;53436.75;6187205;23;20489;-91
2021/03/08 07:19:04;;;;;;;149.80;50.27;;;2.20;99.90;;;-143.32;100.00;53418.56;6187499;23;20500;-92
2021/03/08 07:21:38;;;;;;;141.10;46.93;;;2.20;99.90;;;-143.32;100.00;53372.13;6191623;23;20405;-92
2021/03/08 07:24:15;;;;;;;160.27;51.67;;;2.20;99.90;;;-143.32;100.00;53376.16;6186993;23;20484;-86
2021/03/08 07:26:53;;;;;;;157.03;51.63;;;2.20;99.90;;;-143.32;100.00;53275.19;6186531;23;20385;-87
2021/03/08 07:29:22;;;;;;;160.30;50.70;;;2.30;99.90;;;-143.32;100.00;53281.25;6186479;23;20398;-87
2021/03/08 07:31:50;;;;;;;180.17;54.57;;;2.30;99.90;;;-143.32;100.00;53238.81;6186424;23;20406;-88
2021/03/08 07:34:18;;;;;;;161.43;49.93;;;2.20;99.90;;;-143.32;100.00;53238.81;6187101;23;20445;-87
2021/03/08 07:36:59;;;;;;;162.17;52.30;;;2.30;99.90;;;-143.32;100.00;53220.66;6186705;23;20406;-86
2021/03/08 07:39:26;;;;;;;165.67;53.30;;;2.30;99.90;;;-143.32;100.00;53192.38;6187414;23;20451;-85
2021/03/08 07:41:57;;;;;;;180.40;52.70;;;2.30;99.90;;;-143.32;100.00;53139.88;6185995;23;20413;-86
2021/03/08 07:44:26;;;;;;;183.80;54.67;;;2.30;99.90;;;-143.32;100.00;53034.84;6186660;23;20396;-87
2021/03/08 07:47:17;;;;;;;174.87;54.83;;;2.30;99.90;;;-143.32;100.00;52879.34;6186405;23;20476;-87
2021/03/08 07:49:44;;;;;;;176.07;53.90;;;2.40;99.90;;;-143.32;100.00;52869.25;6186773;23;20417;-86
2021/03/08 07:52:13;;;;;;;186.40;56.77;;;2.40;99.90;;;-143.32;100.00;52816.75;6186475;23;20417;-87
2021/03/08 07:54:57;;;;;;;194.20;57.40;;;2.30;99.90;;;-143.32;100.00;52778.38;6186094;23;20449;-85
2021/03/08 07:57:25;;;;;;;191.33;57.10;;;2.30;99.90;;;-143.32;100.00;52723.84;6186556;23;20386;-88
2021/03/08 07:59:52;;;;;;;181.30;55.97;;;2.50;99.90;;;-143.32;100.00;52620.88;6187285;23;20737;-86
2021/03/08 08:02:19;;;;;;;192.73;56.70;;;2.40;99.90;;;-143.32;100.00;52566.34;6186524;23;20773;-87
2021/03/08 08:04:47;;;;;;;194.20;56.30;;;2.50;99.90;;;-143.32;100.00;52592.59;6186466;23;20436;-87
2021/03/08 08:07:19;;;;;;;203.23;56.67;;;2.50;99.90;;;-143.32;100.00;52560.31;6185854;23;20398;-88
2021/03/08 08:09:48;;;;;;;208.57;55.37;;;2.60;99.90;;;-143.32;100.00;52501.75;6185897;23;20393;-89
2021/03/08 08:12:28;;;;;;;210.10;59.37;;;2.60;99.90;;;-143.32;100.00;51772.91;6185947;23;20406;-87
2021/03/08 08:15:01;;;;;;;194.80;56.17;;;2.70;99.90;;;-143.32;100.00;51738.56;6185903;23;20390;-86
2021/03/08 08:17:34;;;;;;;186.27;56.50;;;2.70;99.90;;;-143.32;100.00;51585.16;6186016;23;20476;-87
2021/03/08 08:20:04;;;;;;;209.47;56.20;;;2.80;99.90;;;-143.32;100.00;51562.94;6185733;23;20779;-88
2021/03/08 08:22:34;;;;;;;193.33;56.77;;;2.80;99.90;;;-143.32;100.00;51573.03;6185855;23;20445;-88
2021/03/08 08:25:05;;;;;;;199.90;57.87;;;2.90;99.90;;;-143.32;100.00;51601.31;6185706;23;20413;-90
2021/03/08 08:27:33;;;;;;;209.57;59.50;;;2.90;99.90;;;-143.32;100.00;51633.59;6186267;23;20401;-88
2021/03/08 08:30:01;;;;;;;205.23;58.90;;;2.90;99.90;;;-143.32;100.00;51651.78;6185868;23;20402;-88
2021/03/08 08:32:48;;;;;;;192.63;56.20;;;3.00;99.90;;;-143.32;100.00;51623.50;6185869;23;20412;-88
2021/03/08 08:35:22;;;;;;;193.00;56.27;;;3.10;99.90;;;-143.32;100.00;51653.78;6186210;23;20397;-87
2021/03/08 08:38:25;;;;;;;187.57;56.93;;;3.10;99.90;;;-143.32;100.00;51639.66;6185969;23;20389;-87
2021/03/08 08:41:19;;;;;;;203.30;58.10;;;3.10;99.90;;;-143.32;100.00;51742.63;6187494;23;20394;-88
2021/03/08 08:44:37;;;;;;;196.30;56.40;;;3.20;99.90;;;-143.32;100.00;51918.25;6185942;23;20402;-86
2021/03/08 08:47:32;;;;;;;183.27;57.17;;;3.20;99.90;;;-143.32;100.00;52461.34;6186062;23;20769;-88
2021/03/08 08:50:04;;;;;;;188.13;60.00;;;3.30;99.90;;;-143.32;100.00;52544.16;6185840;23;20390;-89
2021/03/08 08:56:12;;;;;;;206.27;56.53;;;3.40;99.90;;;-143.32;100.00;52572.41;6186371;23;20378;-87
2021/03/08 08:58:44;;;;;;;181.40;57.57;;;3.60;99.90;;;-143.32;100.00;52592.59;6185629;23;20406;-88
2021/03/08 09:01:40;;;;;;;179.77;57.53;;;3.60;99.90;;;-143.32;100.00;52647.13;6185988;23;20414;-87
2021/03/08 09:04:10;;;;;;;171.33;54.10;;;3.70;99.90;;;-143.32;100.00;52705.69;6186650;23;20400;-88
2021/03/08 09:06:54;;;;;;;188.80;55.90;;;3.70;99.90;;;-143.32;100.00;52719.81;6186259;23;20453;-90
2021/03/08 09:09:52;;;;;;;167.43;52.37;;;3.60;99.90;;;-143.32;100.00;52738.00;6188476;23;20416;-88
2021/03/08 09:12:41;;;;;;;182.03;54.07;;;3.60;99.90;;;-143.32;100.00;52725.88;6187489;23;20889;-93
2021/03/08 09:15:16;;;;;;;183.27;54.93;;;3.60;99.90;;;-143.32;100.00;52758.19;6191112;23;20421;-91
2021/03/08 09:17:46;;;;;;;186.43;53.50;;;3.70;99.90;;;-143.32;100.00;52705.69;6192370;23;20766;-92
2021/03/08 09:20:28;;;;;;;182.43;55.57;;;3.80;99.90;;;-143.32;100.00;52725.88;6194919;23;20497;-92
2021/03/08 09:22:58;;;;;;;197.70;53.30;;;3.80;99.90;;;-143.32;100.00;52709.72;6187581;23;20421;-92
2021/03/08 09:25:39;;;;;;;176.13;53.90;;;3.80;99.90;;;-143.32;100.00;52729.91;6187184;23;20489;-92
2021/03/08 09:28:11;;;;;;;162.60;50.57;;;3.90;99.90;;;-143.32;100.00;52766.25;6188572;23;20418;-91
2021/03/08 09:33:54;;;;;;;146.10;50.10;;;3.80;99.90;;;-143.32;100.00;52742.03;6199845;23;20442;-92
2021/03/08 09:36:24;;;;;;;156.63;49.43;;;3.90;99.90;;;-143.32;100.00;52740.00;6195069;23;20976;-90
2021/03/08 09:38:56;;;;;;;173.13;53.77;;;3.90;99.90;;;-143.32;100.00;52760.22;6197705;23;20497;-90
2021/03/08 09:41:57;;;;;;;143.70;50.90;;;4.00;99.90;;;-143.32;100.00;52752.13;6206239;23;20366;-88
2021/03/08 09:44:53;;;;;;;162.07;52.00;;;4.00;99.90;;;-143.32;100.00;52746.06;6205846;23;20413;-91
2021/03/08 09:47:45;;;;;;;167.97;51.53;;;4.00;99.90;;;-143.32;100.00;52754.16;6205913;23;20486;-91
2021/03/08 09:50:55;;;;;;;;;;;;;;;;;;;;;
2021/03/08 09:56:20;;;;;;;163.83;51.80;;;3.90;99.90;;;-143.32;100.00;52756.16;6206406;23;20440;-91
2021/03/08 09:59:16;;;;;;;151.90;51.07;;;4.10;99.90;;;-143.32;100.00;52758.19;6203095;23;20437;-91
2021/03/08 10:01:53;;;;;;;137.37;49.87;;;4.10;99.90;;;-143.32;100.00;52719.81;6194977;23;20389;-88
2021/03/08 10:04:24;;;;;;;154.30;53.03;;;4.20;99.90;;;-143.32;100.00;52748.09;6192739;23;20430;-90
2021/03/08 10:07:05;;;;;;;156.10;53.10;;;4.30;99.90;;;-143.32;100.00;52689.53;6190704;23;20433;-90
2021/03/08 10:10:07;;;;;;;141.50;51.07;;;4.30;99.90;;;-143.32;100.00;52711.75;6190973;23;20406;-91
2021/03/08 10:12:45;;;;;;;160.67;52.90;;;4.20;99.90;;;-143.32;100.00;52758.19;6192557;23;20398;-88
2021/03/08 10:37:50;;;;;;;136.13;49.10;;;4.20;99.90;;;-143.32;100.00;52713.75;6091290;23;20578;-91
2021/03/08 10:40:18;;;;;;;139.27;50.80;;;4.20;99.90;;;-143.32;100.00;52695.59;6083744;23;20549;-91
2021/03/08 10:42:46;;;;;;;139.23;50.50;;;4.30;99.90;;;-143.32;100.00;52709.72;6169225;23;20924;-90
2021/03/08 10:45:14;;;;;;;147.60;52.50;;;4.40;99.90;;;-143.32;100.00;52721.84;6189264;23;20433;-90
2021/03/08 10:48:18;;;;;;;;;;;;;;;;;;;;;
2021/03/08 10:54:46;;;;;;;112.70;43.90;;;4.60;99.90;;;-143.32;100.00;52721.84;6200807;23;20506;-92
2021/03/08 11:45:37;;;;;;;;;;;;;;;;;;;;;
2021/03/08 12:28:11;;;;;;;68.03;32.53;;;5.70;99.90;;;-143.32;100.00;52921.75;6162162;23;20436;-94
2021/03/08 12:35:26;;;;;;;66.43;33.40;;;5.60;99.90;;;-143.32;100.00;52962.16;6101509;23;20427;-92
2021/03/08 12:56:22;;;;;;;65.17;32.47;;;5.90;99.90;;;-143.32;100.00;52946.00;6184342;23;20511;-93
2021/03/08 13:06:39;;;;;;;58.87;26.53;;;6.10;99.90;;;-143.32;100.00;53008.59;5889196;24;20414;-93
2021/03/08 13:24:15;;;;;;;60.07;28.03;;;5.90;99.90;;;-143.32;100.00;52974.25;6188103;23;20385;-89
2021/03/08 13:26:51;;;;;;;52.67;27.83;;;6.00;99.90;;;-143.32;100.00;53014.66;6203795;23;20417;-92
2021/03/08 13:29:45;;;;;;;55.17;27.50;;;6.00;99.90;;;-143.32;100.00;53020.72;6202266;23;20424;-93
2021/03/08 13:38:40;;;;;;;63.17;26.77;;;5.90;99.90;;;-143.32;100.00;52956.09;6192754;23;20448;-92
2021/03/08 13:41:21;;;;;;;61.97;27.50;;;6.10;99.90;;;-143.32;100.00;52966.19;6195459;23;20685;-92
2021/03/08 13:43:53;;;;;;;55.17;27.33;;;6.40;99.90;;;-143.32;99.34;53004.56;6191720;23;20485;-93
2021/03/08 13:46:32;;;;;;;61.27;28.00;;;6.40;99.90;;;-143.32;99.57;53046.97;6189960;23;20426;-91
2021/03/08 13:49:03;;;;;;;54.93;27.77;;;6.40;99.90;;;-143.32;100.00;53040.91;6190621;23;20810;-91